Time;durP1;ratioP1;P1;durP2;ratioP2;P2;SDS_P1;SDS_P2;PMS_P1;PMS_P2;Temp;Humidity;BMP_temperature;BMP_pressure;BME280_temperature;BME280_humidity;BME280_pressure;Samples;Min_cycle;Max_cycle;Signal;HPM_P1;HPM_P2
2022/09/27 00:02:27;;;;;;;10.50;8.23;;;;;;;-140.66;100.00;55571.53;5058718;28;20052;-74
2022/09/27 00:05:13;;;;;;;13.80;8.50;;;;;;;-140.66;100.00;55571.53;5058344;28;20454;-73
2022/09/27 00:07:59;;;;;;;14.88;10.52;;;;;;;-140.66;100.00;55571.53;5059868;28;20033;-72
2022/09/27 00:10:44;;;;;;;15.65;9.73;;;;;;;-140.66;100.00;55571.53;5060242;28;20017;-73
2022/09/27 00:13:30;;;;;;;13.15;10.43;;;;;;;-140.66;100.00;55571.53;5060032;28;20037;-72
2022/09/27 00:16:16;;;;;;;18.88;11.43;;;;;;;-140.66;100.00;55571.53;5059258;28;20021;-72
2022/09/27 00:19:09;;;;;;;17.15;10.82;;;;;;;-140.66;100.00;55571.53;5058770;28;20327;-72
2022/09/27 00:21:55;;;;;;;16.83;10.30;;;;;;;-140.66;100.00;55571.53;5061450;28;20339;-71
2022/09/27 00:24:41;;;;;;;16.02;10.70;;;;;;;-140.66;100.00;55571.53;5061014;28;20497;-72
2022/09/27 00:27:26;;;;;;;16.80;11.18;;;;;;;-140.66;100.00;55571.53;5049034;28;20113;-72
2022/09/27 00:30:12;;;;;;;18.38;10.65;;;;;;;-140.66;100.00;55571.53;5062565;28;20029;-72
2022/09/27 00:32:58;;;;;;;15.93;10.35;;;;;;;-140.66;100.00;55571.53;5062749;28;20310;-71
2022/09/27 00:35:45;;;;;;;16.30;10.38;;;;;;;-140.66;100.00;55571.53;5061813;28;20028;-72
2022/09/27 00:38:30;;;;;;;17.08;11.25;;;;;;;-140.66;100.00;55571.53;5062053;28;20368;-73
2022/09/27 00:41:20;;;;;;;17.55;10.93;;;;;;;-140.66;100.00;55571.53;5057323;28;20044;-73
2022/09/27 00:44:24;;;;;;;20.67;11.52;;;;;;;-140.66;100.00;55571.53;5056526;28;20036;-72
2022/09/27 00:47:30;;;;;;;17.90;10.65;;;;;;;-140.66;100.00;55571.53;5057123;28;20036;-73
2022/09/27 00:50:33;;;;;;;19.50;10.25;;;;;;;-140.66;100.00;55571.53;5057512;28;20036;-72
2022/09/27 00:53:33;;;;;;;14.27;10.68;;;;;;;-140.66;100.00;55571.53;5057305;28;20036;-73
2022/09/27 00:56:25;;;;;;;17.25;9.77;;;;;;;-140.66;100.00;55571.53;5056761;28;20059;-73
2022/09/27 00:59:41;;;;;;;14.95;10.57;;;;;;;-140.66;100.00;55571.53;5056686;28;20040;-72
2022/09/27 01:02:27;;;;;;;12.95;10.52;;;;;;;-140.66;100.00;55571.53;5057433;28;20068;-73
2022/09/27 01:05:14;;;;;;;15.82;10.70;;;;;;;-140.66;100.00;55571.53;5056743;28;20450;-71
2022/09/27 01:08:00;;;;;;;14.30;10.80;;;;;;;-140.66;100.00;55571.53;5056835;28;20036;-72
2022/09/27 01:10:59;;;;;;;15.05;10.63;;;;;;;-140.66;100.00;55571.53;5057105;28;20108;-72
2022/09/27 01:14:05;;;;;;;13.95;10.15;;;;;;;-140.66;100.00;55571.53;5055731;28;20083;-72
2022/09/27 01:17:12;;;;;;;14.48;10.80;;;;;;;-140.66;100.00;55571.53;5056451;28;20024;-72
2022/09/27 01:20:11;;;;;;;14.90;11.52;;;;;;;-140.66;100.00;55571.53;5056747;28;20434;-71
2022/09/27 01:23:09;;;;;;;13.70;10.00;;;;;;;-140.66;100.00;55571.53;5056663;28;20032;-72
2022/09/27 01:26:21;;;;;;;17.67;11.32;;;;;;;-140.66;100.00;55571.53;5055994;28;20020;-72
2022/09/27 01:29:20;;;;;;;13.90;11.02;;;;;;;-140.66;100.00;55571.53;5056803;28;20035;-72
2022/09/27 01:32:17;;;;;;;14.05;11.13;;;;;;;-140.66;100.00;55571.53;5055800;28;20024;-72
2022/09/27 01:35:39;;;;;;;14.32;11.73;;;;;;;-140.66;100.00;55571.53;5056476;28;20031;-73
2022/09/27 01:38:43;;;;;;;15.85;11.25;;;;;;;-140.66;100.00;55571.53;5056510;28;20104;-73
2022/09/27 01:41:44;;;;;;;14.60;10.80;;;;;;;-140.66;100.00;55571.53;5056446;28;20025;-72
2022/09/27 01:44:59;;;;;;;13.48;10.90;;;;;;;-140.66;100.00;55571.53;5056191;28;20052;-72
2022/09/27 01:47:52;;;;;;;13.98;11.35;;;;;;;-140.66;100.00;55571.53;5056320;28;20345;-72
2022/09/27 01:50:44;;;;;;;13.48;10.98;;;;;;;-140.66;100.00;55571.53;5055852;28;20356;-72
2022/09/27 01:53:43;;;;;;;14.75;10.85;;;;;;;-140.66;100.00;55571.53;5056065;28;20098;-72
2022/09/27 01:56:34;;;;;;;13.10;11.02;;;;;;;-140.66;100.00;55571.53;5055272;28;20060;-72
2022/09/27 01:59:28;;;;;;;15.02;11.70;;;;;;;-140.66;100.00;55571.53;5042181;28;20029;-72
2022/09/27 02:02:18;;;;;;;15.25;10.90;;;;;;;-140.66;100.00;55571.53;5056015;28;20032;-72
2022/09/27 02:05:07;;;;;;;13.45;10.90;;;;;;;-140.66;100.00;55571.53;5055909;28;20048;-72
2022/09/27 02:08:00;;;;;;;12.75;10.48;;;;;;;-140.66;100.00;55571.53;5055445;28;20021;-72
2022/09/27 02:10:50;;;;;;;13.82;10.73;;;;;;;-140.66;100.00;55571.53;5055238;28;20072;-73
2022/09/27 02:14:13;;;;;;;14.00;10.35;;;;;;;-140.66;100.00;55571.53;5055590;28;20036;-72
2022/09/27 02:17:10;;;;;;;13.00;10.80;;;;;;;-140.66;100.00;55571.53;5055381;28;20017;-73
2022/09/27 02:20:05;;;;;;;15.88;10.57;;;;;;;-140.66;100.00;55571.53;5055297;28;20039;-73
2022/09/27 02:23:16;;;;;;;13.13;10.63;;;;;;;-140.66;100.00;55571.53;5055607;28;20031;-72
2022/09/27 02:26:05;;;;;;;15.15;10.85;;;;;;;-140.66;100.00;55571.53;5055029;28;20025;-72
2022/09/27 02:29:01;;;;;;;11.68;10.35;;;;;;;-140.66;100.00;55571.53;5055495;28;20029;-72
2022/09/27 02:31:47;;;;;;;12.73;10.80;;;;;;;-140.66;100.00;55571.53;5055586;28;20029;-71
2022/09/27 02:34:36;;;;;;;16.10;11.15;;;;;;;-140.66;100.00;55571.53;5041729;28;20021;-72
2022/09/27 02:37:22;;;;;;;16.33;10.95;;;;;;;-140.66;100.00;55571.53;5055119;28;20111;-72
2022/09/27 02:40:09;;;;;;;15.20;11.45;;;;;;;-140.66;100.00;55571.53;5041484;28;20029;-72
2022/09/27 02:42:56;;;;;;;15.32;11.25;;;;;;;-140.66;100.00;55571.53;5041732;28;20057;-71
2022/09/27 02:46:20;;;;;;;13.43;10.65;;;;;;;-140.66;100.00;55571.53;5056634;28;20032;-71
2022/09/27 02:49:19;;;;;;;15.25;11.30;;;;;;;-140.66;100.00;55571.53;5042386;28;20525;-72
2022/09/27 02:52:20;;;;;;;14.60;10.95;;;;;;;-140.66;100.00;55571.53;5055200;28;20342;-72
2022/09/27 02:55:13;;;;;;;13.43;10.82;;;;;;;-140.66;100.00;55571.53;5054492;28;20045;-73
2022/09/27 02:58:27;;;;;;;13.00;10.18;;;;;;;-140.66;100.00;55571.53;5054403;28;20020;-71
2022/09/27 03:01:55;;;;;;;13.98;10.77;;;;;;;-140.66;100.00;55571.53;5054418;28;20079;-71
2022/09/27 03:04:46;;;;;;;17.77;12.05;;;;;;;-140.66;100.00;55571.53;5054273;28;20120;-73
2022/09/27 03:07:33;;;;;;;18.10;11.30;;;;;;;-140.66;100.00;55571.53;5054654;28;20112;-73
2022/09/27 03:10:23;;;;;;;14.25;11.25;;;;;;;-140.66;100.00;55571.53;5055326;28;20024;-72
2022/09/27 03:13:09;;;;;;;15.32;11.48;;;;;;;-140.66;100.00;55571.53;5054819;28;20032;-72
2022/09/27 03:15:55;;;;;;;14.90;11.00;;;;;;;-140.66;100.00;55571.53;5054226;28;20510;-73
2022/09/27 03:18:42;;;;;;;16.48;11.02;;;;;;;-140.66;100.00;55571.53;5055906;28;20071;-73
2022/09/27 03:21:28;;;;;;;14.73;10.98;;;;;;;-140.66;100.00;55571.53;5054050;28;20342;-73
2022/09/27 03:24:13;;;;;;;16.15;11.98;;;;;;;-140.66;100.00;55571.53;5054298;28;20032;-72
2022/09/27 03:26:59;;;;;;;13.48;10.02;;;;;;;-140.66;100.00;55571.53;5053988;28;20020;-73
2022/09/27 03:29:45;;;;;;;15.38;11.15;;;;;;;-140.66;100.00;55571.53;5054470;28;20501;-73
2022/09/27 03:32:31;;;;;;;16.30;10.63;;;;;;;-140.66;100.00;55571.53;5055237;28;20036;-74
2022/09/27 03:35:16;;;;;;;14.40;10.52;;;;;;;-140.66;100.00;55571.53;5039499;28;20052;-72
2022/09/27 03:38:03;;;;;;;15.35;10.55;;;;;;;-140.66;100.00;55571.53;5055098;28;20461;-73
2022/09/27 03:40:49;;;;;;;17.35;10.70;;;;;;;-140.66;100.00;55571.53;5039710;28;20064;-73
2022/09/27 03:43:34;;;;;;;14.50;10.57;;;;;;;-140.66;100.00;55571.53;5054298;28;20423;-72
2022/09/27 03:46:20;;;;;;;15.90;12.82;;;;;;;-140.66;100.00;55571.53;5054030;28;20101;-72
2022/09/27 03:49:06;;;;;;;18.48;12.32;;;;;;;-140.66;100.00;55571.53;5054006;28;20111;-72
2022/09/27 03:51:52;;;;;;;16.15;11.02;;;;;;;-140.66;100.00;55571.53;5053984;28;20465;-72
2022/09/27 03:54:38;;;;;;;14.60;11.00;;;;;;;-140.66;100.00;55571.53;5054435;28;20029;-72
2022/09/27 03:57:23;;;;;;;14.25;11.07;;;;;;;-140.66;100.00;55571.53;5053526;28;20025;-71
2022/09/27 04:00:10;;;;;;;15.85;11.48;;;;;;;-140.66;100.00;55571.53;5054126;28;20024;-72
2022/09/27 04:02:56;;;;;;;16.00;12.05;;;;;;;-140.66;100.00;55571.53;5054635;28;20026;-72
2022/09/27 04:05:41;;;;;;;14.85;11.02;;;;;;;-140.66;100.00;55571.53;5054083;28;20094;-73
2022/09/27 04:08:29;;;;;;;15.25;11.48;;;;;;;-140.66;100.00;55571.53;5040004;28;20025;-73
2022/09/27 04:11:14;;;;;;;17.77;11.95;;;;;;;-140.66;100.00;55571.53;5041129;28;20120;-73
2022/09/27 04:14:00;;;;;;;17.63;13.40;;;;;;;-140.66;100.00;55571.53;5054228;28;20036;-73
2022/09/27 04:16:46;;;;;;;21.23;14.80;;;;;;;-140.66;100.00;55571.53;5052977;28;20029;-73
2022/09/27 04:19:32;;;;;;;19.25;12.80;;;;;;;-140.66;100.00;55571.53;5053723;28;20333;-74
2022/09/27 04:22:18;;;;;;;19.63;12.23;;;;;;;-140.66;100.00;55571.53;5054327;28;20041;-74
2022/09/27 04:25:04;;;;;;;15.52;11.57;;;;;;;-140.66;100.00;55571.53;5039030;28;20501;-75
2022/09/27 04:27:54;;;;;;;16.92;11.82;;;;;;;-140.66;100.00;55571.53;5040828;28;20029;-73
2022/09/27 04:30:40;;;;;;;16.05;10.82;;;;;;;-140.66;100.00;55571.53;5043329;28;20150;-74
2022/09/27 04:33:25;;;;;;;19.58;13.27;;;;;;;-140.66;100.00;55571.53;5058287;28;20025;-74
2022/09/27 04:36:26;;;;;;;18.40;11.95;;;;;;;-140.66;100.00;55571.53;5058258;28;20044;-73
2022/09/27 04:39:12;;;;;;;15.25;12.18;;;;;;;-140.66;100.00;55571.53;5057413;28;20025;-74
2022/09/27 04:41:58;;;;;;;16.98;12.00;;;;;;;-140.66;100.00;55571.53;5043507;28;20039;-73
2022/09/27 04:44:44;;;;;;;14.55;11.48;;;;;;;-140.66;100.00;55571.53;5056832;28;20098;-73
2022/09/27 04:47:29;;;;;;;19.42;12.90;;;;;;;-140.66;100.00;55571.53;5043231;28;20104;-75
2022/09/27 04:50:16;;;;;;;22.80;13.60;;;;;;;-140.66;100.00;55571.53;5056622;28;20028;-74
2022/09/27 04:53:03;;;;;;;18.77;14.85;;;;;;;-140.66;100.00;55571.53;5057019;28;20029;-74
2022/09/27 04:55:49;;;;;;;22.58;13.70;;;;;;;-140.66;100.00;55571.53;5042369;28;20068;-74
2022/09/27 04:58:34;;;;;;;22.70;15.82;;;;;;;-140.66;100.00;55571.53;5056612;28;20437;-74
2022/09/27 05:01:21;;;;;;;21.27;14.77;;;;;;;-140.66;100.00;55571.53;5042408;28;20114;-75
2022/09/27 05:04:07;;;;;;;24.75;16.45;;;;;;;-140.66;100.00;55571.53;5057061;28;20037;-74
2022/09/27 05:06:53;;;;;;;21.60;16.10;;;;;;;-140.66;100.00;55571.53;5056496;28;20047;-74
2022/09/27 05:09:38;;;;;;;22.02;16.38;;;;;;;-140.66;100.00;55571.53;5056447;28;20461;-75
2022/09/27 05:12:25;;;;;;;25.05;16.85;;;;;;;-140.66;100.00;55571.53;5056689;28;20029;-74
2022/09/27 05:15:11;;;;;;;27.15;20.00;;;;;;;-140.66;100.00;55571.53;5042879;28;20056;-72
2022/09/27 05:17:58;;;;;;;23.10;15.50;;;;;;;-140.66;100.00;55571.53;5043499;28;20480;-75
2022/09/27 05:20:44;;;;;;;18.92;14.65;;;;;;;-140.66;100.00;55571.53;5056389;28;20033;-74
2022/09/27 05:23:29;;;;;;;19.90;15.90;;;;;;;-140.66;100.00;55571.53;5041798;28;20032;-73
2022/09/27 05:26:18;;;;;;;21.65;15.95;;;;;;;-140.66;100.00;55571.53;5058000;28;20029;-74
2022/09/27 05:29:04;;;;;;;20.33;15.75;;;;;;;-140.66;100.00;55571.53;5057132;28;20025;-74
2022/09/27 05:31:49;;;;;;;17.77;13.60;;;;;;;-140.66;100.00;55571.53;5056195;28;20052;-74
2022/09/27 05:34:35;;;;;;;20.80;14.40;;;;;;;-140.66;100.00;55571.53;5056695;28;20025;-74
2022/09/27 05:37:22;;;;;;;16.30;12.77;;;;;;;-140.66;100.00;55571.53;5057698;28;20033;-75
2022/09/27 05:40:08;;;;;;;16.60;13.32;;;;;;;-140.66;100.00;55571.53;5055739;28;20090;-75
2022/09/27 05:42:54;;;;;;;17.30;12.40;;;;;;;-140.66;100.00;55571.53;5041462;28;20098;-74
2022/09/27 05:45:41;;;;;;;16.98;13.48;;;;;;;-140.66;100.00;55571.53;5056041;28;20362;-74
2022/09/27 05:48:29;;;;;;;14.85;13.23;;;;;;;-140.66;100.00;55571.53;5056599;28;20025;-74
2022/09/27 05:51:15;;;;;;;17.98;14.10;;;;;;;-140.66;100.00;55571.53;5056553;28;20405;-74
2022/09/27 05:54:00;;;;;;;17.75;14.73;;;;;;;-140.66;100.00;55571.53;5056041;28;20047;-75
2022/09/27 05:56:46;;;;;;;18.90;14.90;;;;;;;-140.66;100.00;55571.53;5055048;28;20126;-74
2022/09/27 05:59:32;;;;;;;16.30;13.40;;;;;;;-140.66;100.00;55571.53;5056274;28;20028;-74
2022/09/27 06:02:18;;;;;;;17.52;12.73;;;;;;;-140.66;100.00;55571.53;5055385;28;20024;-74
2022/09/27 06:05:04;;;;;;;15.30;12.15;;;;;;;-140.66;100.00;55571.53;5054834;28;20445;-74
2022/09/27 06:07:51;;;;;;;13.98;12.43;;;;;;;-140.66;100.00;55571.53;5055688;28;20436;-72
2022/09/27 06:10:38;;;;;;;17.27;13.35;;;;;;;-140.66;100.00;55571.53;5055984;28;20064;-73
2022/09/27 06:13:24;;;;;;;16.95;12.23;;;;;;;-140.66;100.00;55571.53;5055407;28;20025;-72
2022/09/27 06:16:10;;;;;;;16.42;12.52;;;;;;;-140.66;100.00;55571.53;5055988;28;20020;-72
2022/09/27 06:18:56;;;;;;;19.70;14.93;;;;;;;-140.66;100.00;55571.53;5040874;28;20111;-72
2022/09/27 06:21:42;;;;;;;19.02;14.75;;;;;;;-140.66;100.00;55571.53;5055190;28;20430;-72
2022/09/27 06:24:28;;;;;;;18.25;14.25;;;;;;;-140.66;100.00;55571.53;5055323;28;20116;-71
2022/09/27 06:27:14;;;;;;;19.35;15.10;;;;;;;-140.66;100.00;55571.53;5055438;28;20453;-72
2022/09/27 06:29:59;;;;;;;18.50;14.43;;;;;;;-140.66;100.00;55571.53;5055062;28;20028;-73
2022/09/27 06:32:45;;;;;;;17.38;13.45;;;;;;;-140.66;100.00;55571.53;5054764;28;20434;-73
2022/09/27 06:35:34;;;;;;;18.15;13.50;;;;;;;-140.66;100.00;55571.53;5054934;28;20025;-71
2022/09/27 06:38:20;;;;;;;19.50;13.63;;;;;;;-140.66;100.00;55571.53;5055429;28;20438;-72
2022/09/27 06:41:07;;;;;;;16.42;13.25;;;;;;;-140.66;100.00;55571.53;5054934;28;20103;-71
2022/09/27 06:43:53;;;;;;;17.30;12.85;;;;;;;-140.66;100.00;55571.53;5055040;28;20024;-71
2022/09/27 06:46:39;;;;;;;17.40;13.98;;;;;;;-140.66;100.00;55571.53;5041180;28;20025;-72
2022/09/27 06:49:25;;;;;;;16.05;12.43;;;;;;;-140.66;100.00;55571.53;5041748;28;20056;-71
2022/09/27 06:52:10;;;;;;;15.55;13.07;;;;;;;-140.66;100.00;55571.53;5054288;28;20029;-71
2022/09/27 06:54:56;;;;;;;16.85;13.82;;;;;;;-140.66;100.00;55571.53;5054045;28;20048;-71
2022/09/27 07:00:53;;;;;;;21.58;16.73;;;;;;;-140.66;100.00;55571.53;5054905;28;20115;-71
2022/09/27 07:03:42;;;;;;;20.45;15.63;;;;;;;-140.66;100.00;55571.53;5055141;28;20051;-72
2022/09/27 07:06:27;;;;;;;21.88;16.77;;;;;;;-140.66;100.00;55571.53;5054915;28;20043;-72
2022/09/27 07:09:16;;;;;;;19.02;14.82;;;;;;;-140.66;100.00;55571.53;5054526;28;20025;-72
2022/09/27 07:12:01;;;;;;;16.88;14.02;;;;;;;-140.66;100.00;55571.53;5054937;28;20032;-72
2022/09/27 07:14:48;;;;;;;17.23;13.60;;;;;;;-140.66;100.00;55571.53;5054559;28;20024;-72
2022/09/27 07:17:36;;;;;;;20.42;14.77;;;;;;;-140.66;100.00;55571.53;5054540;28;20029;-71
2022/09/27 07:20:23;;;;;;;21.80;15.90;;;;;;;-140.66;100.00;55571.53;5054131;28;20033;-72
2022/09/27 07:23:09;;;;;;;21.23;15.98;;;;;;;-140.66;100.00;55571.53;5054569;28;20068;-72
2022/09/27 07:25:59;;;;;;;25.58;16.63;;;;;;;-140.66;100.00;55571.53;5053832;28;20445;-72
2022/09/27 07:28:45;;;;;;;22.08;16.67;;;;;;;-140.66;100.00;55571.53;5040536;28;20025;-71
2022/09/27 07:31:31;;;;;;;21.75;16.88;;;;;;;-140.66;100.00;55571.53;5054157;28;20052;-72
2022/09/27 07:34:17;;;;;;;26.23;18.05;;;;;;;-140.66;100.00;55571.53;5054667;28;20033;-72
2022/09/27 07:37:04;;;;;;;28.85;17.02;;;;;;;-140.66;100.00;55571.53;5053576;28;20029;-71
2022/09/27 07:39:51;;;;;;;30.95;16.88;;;;;;;-140.66;100.00;55571.53;5054835;28;20468;-73
2022/09/27 07:42:37;;;;;;;23.25;16.88;;;;;;;-140.66;100.00;55571.53;5054190;28;20025;-73
2022/09/27 07:45:25;;;;;;;19.75;15.18;;;;;;;-140.66;100.00;55571.53;5054554;28;20128;-72
2022/09/27 07:48:13;;;;;;;22.23;13.32;;;;;;;-140.66;100.00;55571.53;5040443;28;20102;-73
2022/09/27 07:50:59;;;;;;;14.10;10.85;;;;;;;-140.66;100.00;55571.53;5054385;28;20013;-71
2022/09/27 07:53:45;;;;;;;13.85;11.07;;;;;;;-140.66;100.00;55571.53;5053815;28;20021;-73
2022/09/27 07:56:31;;;;;;;15.20;10.35;;;;;;;-140.66;100.00;55571.53;5038548;28;20538;-71
2022/09/27 07:59:17;;;;;;;13.65;10.18;;;;;;;-140.66;100.00;55571.53;5054606;28;20375;-71
2022/09/27 08:02:03;;;;;;;15.98;9.55;;;;;;;-140.66;100.00;55571.53;5053995;28;20063;-68
2022/09/27 08:04:49;;;;;;;15.50;10.05;;;;;;;-140.66;100.00;55571.53;5056009;28;20044;-72
2022/09/27 08:07:38;;;;;;;13.80;9.27;;;;;;;-140.66;100.00;55571.53;5057439;28;20036;-72
2022/09/27 08:10:30;;;;;;;18.63;12.60;;;;;;;-140.66;100.00;55571.53;5058171;28;20130;-72
2022/09/27 08:13:18;;;;;;;19.40;13.45;;;;;;;-140.66;100.00;55571.53;5057600;28;20044;-72
2022/09/27 08:16:05;;;;;;;19.52;15.38;;;;;;;-140.66;100.00;55571.53;5058214;28;20033;-72
2022/09/27 08:18:51;;;;;;;21.25;16.52;;;;;;;-140.66;100.00;55571.53;5057839;28;20032;-71
2022/09/27 08:21:36;;;;;;;25.27;15.55;;;;;;;-140.66;100.00;55571.53;5058696;28;20378;-72
2022/09/27 08:24:22;;;;;;;21.10;15.25;;;;;;;-140.66;100.00;55571.53;5057539;28;20059;-72
2022/09/27 08:27:08;;;;;;;23.20;14.45;;;;;;;-140.66;100.00;55571.53;5058159;28;20112;-71
2022/09/27 08:29:54;;;;;;;25.40;15.18;;;;;;;-140.66;100.00;55571.53;5044116;28;20035;-72
2022/09/27 08:32:42;;;;;;;21.23;14.57;;;;;;;-140.66;100.00;55571.53;5057623;28;20109;-71
2022/09/27 08:35:32;;;;;;;23.42;15.55;;;;;;;-140.66;100.00;55571.53;5057402;28;20056;-72
2022/09/27 08:38:18;;;;;;;22.10;14.18;;;;;;;-140.66;100.00;55571.53;5057764;28;20036;-72
2022/09/27 08:41:04;;;;;;;20.65;14.80;;;;;;;-140.66;100.00;55571.53;5042574;28;20029;-75
2022/09/27 08:44:08;;;;;;;23.05;15.32;;;;;;;-140.66;100.00;55571.53;5044029;28;20020;-75
2022/09/27 08:47:03;;;;;;;19.02;14.43;;;;;;;-140.66;100.00;55571.53;5056617;28;20060;-74
2022/09/27 08:49:55;;;;;;;24.25;15.70;;;;;;;-140.66;100.00;55571.53;5056977;28;20060;-74
2022/09/27 08:52:47;;;;;;;18.88;14.60;;;;;;;-140.66;100.00;55571.53;5057321;28;20032;-75
2022/09/27 08:55:48;;;;;;;17.27;13.45;;;;;;;-140.66;100.00;55571.53;5056753;28;20053;-75
2022/09/27 08:58:48;;;;;;;17.05;13.70;;;;;;;-140.66;100.00;55571.53;5057499;28;20036;-75
2022/09/27 09:01:34;;;;;;;18.05;13.15;;;;;;;-140.66;100.00;55571.53;5056680;28;20029;-74
2022/09/27 09:04:49;;;;;;;16.45;12.02;;;;;;;-140.66;100.00;55571.53;5057476;28;20028;-75
2022/09/27 09:07:49;;;;;;;16.42;11.88;;;;;;;-140.66;100.00;55571.53;5057621;28;20029;-75
2022/09/27 09:14:30;;;;;;;14.57;11.60;;;;;;;-140.66;100.00;55571.53;5057014;28;20021;-74
2022/09/27 09:17:21;;;;;;;16.40;11.25;;;;;;;-140.66;100.00;55571.53;5057057;28;20494;-73
2022/09/27 09:20:25;;;;;;;14.80;11.60;;;;;;;-140.66;100.00;55571.53;5056994;28;20021;-71
2022/09/27 09:23:24;;;;;;;20.85;14.23;;;;;;;-140.66;100.00;55571.53;5056728;28;20445;-71
2022/09/27 09:26:28;;;;;;;20.17;14.55;;;;;;;-140.66;100.00;55571.53;5056863;28;20044;-71
2022/09/27 09:29:42;;;;;;;17.13;12.35;;;;;;;-140.66;100.00;55571.53;5056606;28;20032;-71
2022/09/27 09:33:04;;;;;;;20.88;13.40;;;;;;;-140.66;100.00;55571.53;5055607;28;20446;-69
2022/09/27 09:36:00;;;;;;;15.85;11.05;;;;;;;-140.66;100.00;55571.53;5055998;28;20091;-69
2022/09/27 09:38:52;;;;;;;15.75;11.60;;;;;;;-140.66;100.00;55571.53;5056401;28;20043;-67
2022/09/27 09:42:08;;;;;;;20.63;13.02;;;;;;;-140.66;100.00;55571.53;5056007;28;20055;-67
2022/09/27 09:45:14;;;;;;;16.05;12.35;;;;;;;-140.66;100.00;55571.53;5056050;28;20025;-68
2022/09/27 09:48:03;;;;;;;17.40;13.00;;;;;;;-140.66;100.00;55571.53;5055752;28;20028;-68
2022/09/27 09:50:53;;;;;;;18.13;11.82;;;;;;;-140.66;100.00;55571.53;5056601;28;20106;-69
2022/09/27 09:53:45;;;;;;;19.17;11.57;;;;;;;-140.66;100.00;55571.53;5055842;28;20091;-70
2022/09/27 09:57:17;;;;;;;15.68;11.10;;;;;;;-140.66;100.00;55571.53;5055173;28;20124;-70
2022/09/27 10:00:13;;;;;;;14.95;11.63;;;;;;;-140.66;100.00;55571.53;5056015;28;20029;-71
2022/09/27 10:02:59;;;;;;;15.23;12.60;;;;;;;-140.66;100.00;55571.53;5055521;28;20033;-70
2022/09/27 10:05:46;;;;;;;18.42;13.60;;;;;;;-140.66;100.00;55571.53;5055661;28;20028;-69
2022/09/27 10:08:32;;;;;;;16.70;12.25;;;;;;;-140.66;100.00;55571.53;5055671;28;20021;-70
2022/09/27 10:11:36;;;;;;;17.77;12.77;;;;;;;-140.66;100.00;55571.53;5055828;28;20167;-70
2022/09/27 10:14:21;;;;;;;19.58;13.30;;;;;;;-140.66;100.00;55571.53;5055701;28;20107;-71
2022/09/27 10:17:13;;;;;;;16.73;12.95;;;;;;;-140.66;100.00;55571.53;5057077;28;20040;-71
2022/09/27 10:20:01;;;;;;;17.63;13.25;;;;;;;-140.66;100.00;55571.53;5055797;28;20112;-70
2022/09/27 10:22:53;;;;;;;22.88;14.35;;;;;;;-140.66;100.00;55571.53;5055672;28;20362;-70
2022/09/27 10:26:09;;;;;;;20.40;13.18;;;;;;;-140.66;100.00;55571.53;5055104;28;20035;-71
2022/09/27 10:28:55;;;;;;;25.48;12.85;;;;;;;-140.66;100.00;55571.53;5054472;28;20060;-70
2022/09/27 10:31:46;;;;;;;18.60;13.68;;;;;;;-140.66;100.00;55571.53;5055393;28;20029;-70
2022/09/27 10:34:39;;;;;;;19.02;13.82;;;;;;;-140.66;100.00;55571.53;5040184;28;20365;-71
2022/09/27 10:37:25;;;;;;;20.35;14.98;;;;;;;-140.66;100.00;55571.53;5054834;28;20025;-70
2022/09/27 10:40:27;;;;;;;20.83;14.82;;;;;;;-140.66;100.00;55571.53;5055248;28;20468;-70
2022/09/27 10:43:30;;;;;;;22.45;15.73;;;;;;;-140.66;100.00;55571.53;5054862;28;20028;-70
2022/09/27 10:46:28;;;;;;;21.95;15.00;;;;;;;-140.66;100.00;55571.53;5054673;28;20039;-71
2022/09/27 10:49:19;;;;;;;22.50;14.45;;;;;;;-140.66;100.00;55571.53;5054684;28;20392;-72
2022/09/27 10:52:17;;;;;;;20.38;13.93;;;;;;;-140.66;100.00;55571.53;5054149;28;20441;-71
2022/09/27 10:55:20;;;;;;;20.73;13.88;;;;;;;-140.66;100.00;55571.53;5054308;28;20135;-71
2022/09/27 10:58:15;;;;;;;19.55;14.07;;;;;;;-140.66;100.00;55571.53;5054730;28;20060;-71
2022/09/27 11:01:04;;;;;;;17.45;12.65;;;;;;;-140.66;100.00;55571.53;5041240;28;20347;-71
2022/09/27 11:03:55;;;;;;;17.38;13.65;;;;;;;-140.66;100.00;55571.53;5054462;28;20036;-71
2022/09/27 11:06:40;;;;;;;20.77;12.65;;;;;;;-140.66;100.00;55571.53;5054505;28;20445;-70
2022/09/27 11:09:26;;;;;;;21.38;12.95;;;;;;;-140.66;100.00;55571.53;5054121;28;20067;-70
2022/09/27 11:12:13;;;;;;;18.73;13.65;;;;;;;-140.66;100.00;55571.53;5054404;28;20017;-71
2022/09/27 11:15:08;;;;;;;20.40;12.52;;;;;;;-140.66;100.00;55571.53;5054334;28;20029;-70
2022/09/27 11:18:11;;;;;;;17.00;12.63;;;;;;;-140.66;100.00;55571.53;5040409;28;20029;-71
2022/09/27 11:21:15;;;;;;;18.67;12.05;;;;;;;-140.66;100.00;55571.53;5039661;28;20029;-71
2022/09/27 11:24:27;;;;;;;18.92;12.13;;;;;;;-140.66;100.00;55571.53;5039090;28;20028;-72
2022/09/27 11:27:26;;;;;;;17.95;13.43;;;;;;;-140.66;100.00;55571.53;5053886;28;20025;-74
2022/09/27 11:30:18;;;;;;;18.13;12.68;;;;;;;-140.66;100.00;55571.53;5054470;28;20040;-73
2022/09/27 11:33:19;;;;;;;18.20;11.98;;;;;;;-140.66;100.00;55571.53;5053216;28;20043;-73
2022/09/27 11:36:18;;;;;;;16.38;11.90;;;;;;;-140.66;100.00;55571.53;5053960;28;20036;-73
2022/09/27 11:39:32;;;;;;;18.63;12.45;;;;;;;-140.66;100.00;55571.53;5053677;28;20509;-74
2022/09/27 11:42:47;;;;;;;18.92;12.52;;;;;;;-140.66;100.00;55571.53;5054313;28;20029;-74
2022/09/27 11:45:56;;;;;;;19.05;12.43;;;;;;;-140.66;100.00;55571.53;5040066;28;20025;-73
2022/09/27 11:49:02;;;;;;;20.23;12.77;;;;;;;-140.66;100.00;55571.53;5026619;28;20442;-74
2022/09/27 11:51:54;;;;;;;17.33;12.15;;;;;;;-140.66;100.00;55571.53;5040590;28;20064;-73
2022/09/27 11:55:04;;;;;;;36.92;27.30;;;;;;;-140.66;100.00;55571.53;5053490;28;20087;-72
2022/09/27 11:58:07;;;;;;;21.55;13.70;;;;;;;-140.66;100.00;55571.53;5027991;28;20045;-72
2022/09/27 12:01:03;;;;;;;16.60;11.13;;;;;;;-140.66;100.00;55571.53;5053854;28;20040;-73
2022/09/27 12:03:55;;;;;;;13.60;10.07;;;;;;;-140.66;100.00;55571.53;5053889;28;20036;-72
2022/09/27 12:06:58;;;;;;;14.15;10.43;;;;;;;-140.66;100.00;55571.53;5054755;28;20032;-73
2022/09/27 12:09:51;;;;;;;11.70;9.32;;;;;;;-140.66;100.00;55571.53;5054136;28;20029;-73
2022/09/27 12:12:40;;;;;;;14.20;10.15;;;;;;;-140.66;100.00;55571.53;5054309;28;20358;-74
2022/09/27 12:15:30;;;;;;;14.10;9.95;;;;;;;-140.66;100.00;55571.53;5055221;28;20037;-76
2022/09/27 12:18:23;;;;;;;13.00;10.45;;;;;;;-140.66;100.00;55571.53;5054305;28;20036;-72
2022/09/27 12:21:11;;;;;;;13.10;9.50;;;;;;;-140.66;100.00;55571.53;5054027;28;20366;-73
2022/09/27 12:23:57;;;;;;;12.38;9.77;;;;;;;-140.66;100.00;55571.53;5054410;28;20111;-74
2022/09/27 12:26:44;;;;;;;16.95;9.93;;;;;;;-140.66;100.00;55571.53;5039320;28;20029;-72
2022/09/27 12:29:33;;;;;;;13.40;7.75;;;;;;;-140.66;100.00;55571.53;5055602;28;20086;-71
2022/09/27 12:32:43;;;;;;;9.57;6.47;;;;;;;-140.66;100.00;55571.53;5055343;28;20413;-72
2022/09/27 12:36:01;;;;;;;9.85;6.05;;;;;;;-140.66;100.00;55571.53;5055307;28;20059;-76
2022/09/27 12:38:57;;;;;;;9.45;5.82;;;;;;;-140.66;100.00;55571.53;5036656;28;20091;-70
2022/09/27 12:41:51;;;;;;;6.30;4.80;;;;;;;-140.66;100.00;55571.53;5053677;28;20499;-71
2022/09/27 12:44:38;;;;;;;6.68;5.57;;;;;;;-140.66;100.00;55571.53;5053806;28;20033;-69
2022/09/27 12:48:02;;;;;;;7.32;5.78;;;;;;;-140.66;100.00;55571.53;5053613;28;20021;-71
2022/09/27 12:51:08;;;;;;;12.85;8.80;;;;;;;-140.66;100.00;55571.53;5014162;28;20043;-72
2022/09/27 12:54:12;;;;;;;7.55;6.05;;;;;;;-140.66;100.00;55571.53;5056859;28;20060;-74